createdAt,value
2017-11-08T00:00:59.049Z,68.60
2017-11-08T00:02:01.112Z,68.50
2017-11-08T00:03:02.419Z,68.40
2017-11-08T00:04:03.747Z,68.50
2017-11-08T00:05:05.092Z,68.50
2017-11-08T00:06:06.726Z,68.60
2017-11-08T00:07:08.032Z,68.60
2017-11-08T00:08:09.350Z,68.60
2017-11-08T00:09:10.690Z,68.40
2017-11-08T00:10:12.003Z,68.20
2017-11-08T00:11:14.416Z,68.40
2017-11-08T00:12:15.728Z,68.30
2017-11-08T00:13:17.051Z,68.20
2017-11-08T00:14:19.116Z,67.80
2017-11-08T00:15:20.483Z,67.70
2017-11-08T00:16:21.840Z,67.70
2017-11-08T00:17:23.159Z,67.70
2017-11-08T00:18:25.430Z,67.60
2017-11-08T00:19:26.740Z,67.70
2017-11-08T00:20:28.049Z,67.60
2017-11-08T00:21:32.195Z,67.50
2017-11-08T00:22:33.504Z,67.50
2017-11-08T00:23:34.827Z,67.50
2017-11-08T00:24:36.878Z,67.50
2017-11-08T00:25:38.953Z,67.50
2017-11-08T00:26:40.545Z,67.40
2017-11-08T00:27:41.876Z,67.60
2017-11-08T00:28:43.220Z,67.70
2017-11-08T00:29:44.525Z,67.70
2017-11-08T00:30:45.830Z,67.70
2017-11-08T00:31:47.448Z,67.80
2017-11-08T00:32:48.809Z,68.50
2017-11-08T00:33:50.110Z,67.90
2017-11-08T00:34:51.409Z,68.40
2017-11-08T00:35:53.483Z,67.50
2017-11-08T00:36:55.084Z,67.50
2017-11-08T00:37:56.396Z,67.30
2017-11-08T00:38:57.720Z,67.50
2017-11-08T00:39:59.062Z,67.50
2017-11-08T00:41:00.384Z,67.60
2017-11-08T00:42:02.004Z,67.40
2017-11-08T00:43:04.061Z,67.50
2017-11-08T00:44:05.498Z,67.50
2017-11-08T00:45:07.592Z,67.60
2017-11-08T00:46:08.928Z,67.50
2017-11-08T00:47:10.536Z,67.50
2017-11-08T00:48:12.582Z,67.50
2017-11-08T00:49:14.653Z,67.50
2017-11-08T00:50:16.022Z,67.50
2017-11-08T00:51:17.344Z,67.40
2017-11-08T00:52:18.998Z,67.30
2017-11-08T00:53:20.343Z,67.40
2017-11-08T00:54:21.686Z,67.40
2017-11-08T00:55:23.020Z,67.40
2017-11-08T00:56:24.368Z,67.50
2017-11-08T00:57:32.261Z,67.50
2017-11-08T00:58:33.574Z,67.50
2017-11-08T00:59:34.893Z,67.50
2017-11-08T01:00:36.937Z,67.40
2017-11-08T01:01:38.985Z,67.30
2017-11-08T01:02:41.629Z,67.40
2017-11-08T01:03:45.768Z,67.40
2017-11-08T01:04:47.076Z,67.50
2017-11-08T01:05:48.401Z,67.50
2017-11-08T01:06:49.728Z,67.50
2017-11-08T01:07:51.369Z,67.50
2017-11-08T01:08:52.694Z,67.60
2017-11-08T01:09:54.641Z,67.50
2017-11-08T01:10:56.003Z,67.60
2017-11-08T01:11:57.311Z,67.60
2017-11-08T01:12:58.863Z,67.70
2017-11-08T01:14:00.172Z,67.80
2017-11-08T01:15:02.250Z,67.50
2017-11-08T01:16:03.605Z,67.50
2017-11-08T01:17:04.939Z,67.50
2017-11-08T01:18:06.583Z,67.30
2017-11-08T01:19:07.903Z,67.40
2017-11-08T01:20:09.286Z,67.40
2017-11-08T01:21:10.651Z,67.30
2017-11-08T01:22:11.984Z,67.50
2017-11-08T01:23:13.664Z,67.40
2017-11-08T01:24:14.990Z,67.20
2017-11-08T01:25:17.048Z,66.90
2017-11-08T01:26:19.106Z,66.90
2017-11-08T01:27:21.193Z,66.90
2017-11-08T01:28:22.822Z,66.80
2017-11-08T01:29:24.132Z,66.90
2017-11-08T01:30:26.188Z,66.80
2017-11-08T01:31:28.253Z,66.80
2017-11-08T01:32:30.305Z,67.10
2017-11-08T01:33:32.904Z,67.20
2017-11-08T01:34:34.265Z,67.10
2017-11-08T01:35:35.633Z,67.40
2017-11-08T01:36:36.955Z,67.50
2017-11-08T01:37:39.023Z,67.70
2017-11-08T01:38:42.688Z,67.70
2017-11-08T01:39:46.033Z,67.80
2017-11-08T01:40:48.340Z,67.90
2017-11-08T01:41:55.647Z,67.90
2017-11-08T01:42:57.726Z,68.40
2017-11-08T01:44:00.079Z,68.20
2017-11-08T01:45:02.175Z,68.20
2017-11-08T01:46:03.486Z,68.10
2017-11-08T01:47:04.832Z,68.20
2017-11-08T01:48:08.104Z,68.30
2017-11-08T01:49:09.719Z,68.20
2017-11-08T01:50:11.059Z,68.10
2017-11-08T01:51:13.304Z,68.10
2017-11-08T01:52:16.544Z,68.20
2017-11-08T01:53:17.878Z,68.20
2017-11-08T01:54:19.491Z,68.20
2017-11-08T01:55:20.880Z,68.20
2017-11-08T01:56:22.228Z,68.90
2017-11-08T01:57:23.573Z,68.00
2017-11-08T01:58:24.937Z,68.00
2017-11-08T01:59:26.600Z,68.00
2017-11-08T02:00:28.668Z,67.80
2017-11-08T02:01:30.760Z,67.80
2017-11-08T02:02:32.094Z,67.70
2017-11-08T02:03:33.447Z,67.50
2017-11-08T02:04:35.094Z,67.60
2017-11-08T02:05:36.457Z,67.40
2017-11-08T02:06:37.773Z,67.50
2017-11-08T02:07:39.085Z,67.50
2017-11-08T02:08:40.452Z,67.20
2017-11-08T02:09:42.168Z,67.10
2017-11-08T02:10:43.479Z,67.10
2017-11-08T02:11:45.546Z,67.10
2017-11-08T02:12:46.909Z,67.10
2017-11-08T02:13:48.274Z,67.10
2017-11-08T02:14:49.912Z,67.10
2017-11-08T02:15:51.252Z,67.10
2017-11-08T02:16:52.590Z,67.10
2017-11-08T02:17:56.904Z,67.10
2017-11-08T02:19:00.266Z,67.10
2017-11-08T02:20:01.903Z,67.10
2017-11-08T02:21:07.282Z,67.20
2017-11-08T02:22:09.403Z,67.30
2017-11-08T02:23:10.780Z,67.20
2017-11-08T02:24:12.153Z,67.30
2017-11-08T02:25:13.933Z,67.40
2017-11-08T02:26:15.293Z,67.40
2017-11-08T02:27:17.508Z,67.40
2017-11-08T02:28:18.877Z,67.30
2017-11-08T02:29:20.229Z,67.30
2017-11-08T02:30:23.344Z,67.30
2017-11-08T02:31:25.437Z,67.30
2017-11-08T02:32:26.781Z,67.30
2017-11-08T02:33:32.127Z,67.30
2017-11-08T02:34:34.229Z,67.40
2017-11-08T02:35:36.598Z,67.40
2017-11-08T02:36:37.957Z,67.30
2017-11-08T02:37:41.294Z,67.20
2017-11-08T02:38:42.627Z,67.20
2017-11-08T02:39:43.980Z,67.10
2017-11-08T02:40:45.649Z,67.10
2017-11-08T02:41:47.005Z,67.00
2017-11-08T02:42:48.344Z,67.10
2017-11-08T02:43:49.717Z,67.10
2017-11-08T02:44:51.061Z,67.10
2017-11-08T02:45:52.792Z,67.00
2017-11-08T02:46:57.801Z,67.10
2017-11-08T02:47:59.144Z,67.10
2017-11-08T02:49:00.488Z,67.10
2017-11-08T02:50:02.596Z,67.10
2017-11-08T02:51:07.871Z,67.10
2017-11-08T02:52:11.984Z,67.70
2017-11-08T02:53:19.444Z,67.10
2017-11-08T02:54:23.666Z,67.10
2017-11-08T02:55:24.969Z,67.10
2017-11-08T02:56:26.572Z,67.00
2017-11-08T02:57:27.912Z,67.00
2017-11-08T02:58:29.237Z,67.00
2017-11-08T02:59:30.592Z,67.00
2017-11-08T03:00:31.886Z,67.00
2017-11-08T03:01:33.252Z,67.00
2017-11-08T03:02:40.729Z,67.00
2017-11-08T03:03:45.670Z,67.10
2017-11-08T03:04:46.973Z,67.00
2017-11-08T03:05:48.286Z,67.10
2017-11-08T03:06:49.904Z,67.10
2017-11-08T03:07:52.025Z,67.20
2017-11-08T03:08:53.339Z,67.10
2017-11-08T03:09:54.640Z,67.10
2017-11-08T03:10:56.679Z,67.10
2017-11-08T03:11:58.404Z,67.00
2017-11-08T03:12:59.722Z,67.10
2017-11-08T03:14:01.049Z,67.00
2017-11-08T03:15:02.394Z,67.70
2017-11-08T03:16:03.707Z,67.00
2017-11-08T03:17:06.112Z,67.60
2017-11-08T03:18:07.449Z,67.00
2017-11-08T03:19:08.793Z,67.00
2017-11-08T03:20:10.128Z,67.00
2017-11-08T03:21:11.484Z,66.80
2017-11-08T03:22:13.083Z,67.00
2017-11-08T03:23:14.387Z,67.00
2017-11-08T03:24:15.709Z,66.90
2017-11-08T03:25:17.023Z,66.30
2017-11-08T03:26:18.351Z,66.90
2017-11-08T03:27:19.993Z,66.90
2017-11-08T03:28:21.356Z,66.90
2017-11-08T03:29:22.688Z,66.90
2017-11-08T03:30:24.008Z,66.90
2017-11-08T03:31:25.331Z,66.80
2017-11-08T03:32:26.934Z,66.80
2017-11-08T03:33:28.352Z,66.80
2017-11-08T03:34:29.672Z,66.80
2017-11-08T03:35:31.029Z,66.80
2017-11-08T03:36:32.388Z,66.80
2017-11-08T03:37:33.833Z,67.00
2017-11-08T03:38:35.141Z,67.10
2017-11-08T03:39:36.468Z,66.80
2017-11-08T03:40:37.829Z,66.80
2017-11-08T03:41:39.179Z,66.90
2017-11-08T03:42:40.788Z,66.90
2017-11-08T03:43:42.124Z,66.90
2017-11-08T03:44:43.431Z,66.90
2017-11-08T03:45:45.483Z,67.70
2017-11-08T03:46:47.572Z,67.10
2017-11-08T03:47:49.229Z,67.10
2017-11-08T03:48:50.574Z,66.90
2017-11-08T03:49:51.895Z,66.90
2017-11-08T03:50:53.236Z,66.80
2017-11-08T03:51:54.568Z,66.80
2017-11-08T03:52:56.404Z,66.80
2017-11-08T03:53:57.732Z,66.70
2017-11-08T03:54:59.798Z,66.70
2017-11-08T03:56:01.132Z,66.70
2017-11-08T03:57:02.460Z,66.80
2017-11-08T03:58:05.170Z,66.90
2017-11-08T03:59:06.503Z,66.80
2017-11-08T04:00:07.838Z,67.30
2017-11-08T04:01:09.172Z,67.80
2017-11-08T04:02:10.491Z,68.20
2017-11-08T04:03:12.874Z,68.90
2017-11-08T04:04:14.213Z,68.90
2017-11-08T04:05:15.527Z,69.10
2017-11-08T04:06:17.586Z,69.20
2017-11-08T04:07:18.928Z,69.20
2017-11-08T04:08:20.593Z,69.20
2017-11-08T04:09:21.909Z,69.30
2017-11-08T04:10:23.212Z,69.40
2017-11-08T04:11:24.547Z,69.60
2017-11-08T04:12:25.889Z,69.70
2017-11-08T04:13:27.510Z,69.70
2017-11-08T04:14:28.818Z,69.70
2017-11-08T04:15:30.136Z,69.60
2017-11-08T04:16:31.482Z,69.50
2017-11-08T04:17:32.822Z,69.50
2017-11-08T04:18:34.411Z,69.50
2017-11-08T04:19:35.721Z,69.50
2017-11-08T04:20:37.053Z,69.30
2017-11-08T04:21:38.388Z,69.20
2017-11-08T04:22:39.735Z,69.10
2017-11-08T04:23:41.378Z,69.00
2017-11-08T04:24:42.767Z,69.00
2017-11-08T04:25:44.126Z,69.00
2017-11-08T04:26:46.212Z,69.50
2017-11-08T04:27:47.592Z,68.80
2017-11-08T04:28:49.291Z,68.80
2017-11-08T04:29:50.636Z,68.70
2017-11-08T04:30:51.976Z,68.50
2017-11-08T04:31:53.305Z,68.40
2017-11-08T04:32:54.621Z,68.10
2017-11-08T04:33:57.033Z,67.80
2017-11-08T04:34:58.376Z,67.70
2017-11-08T04:35:59.691Z,67.60
2017-11-08T04:37:01.024Z,67.70
2017-11-08T04:38:02.344Z,67.90
2017-11-08T04:39:04.851Z,68.10
2017-11-08T04:40:06.174Z,68.00
2017-11-08T04:41:07.625Z,68.00
2017-11-08T04:42:08.967Z,68.00
2017-11-08T04:43:10.306Z,67.80
2017-11-08T04:44:11.952Z,67.70
2017-11-08T04:45:13.312Z,67.90
2017-11-08T04:46:14.688Z,67.80
2017-11-08T04:47:16.037Z,67.70
2017-11-08T04:48:17.332Z,67.70
2017-11-08T04:49:19.222Z,67.70
2017-11-08T04:50:20.580Z,67.70
2017-11-08T04:51:21.890Z,67.70
2017-11-08T04:52:23.962Z,68.10
2017-11-08T04:53:25.264Z,68.10
2017-11-08T04:54:26.675Z,68.30
2017-11-08T04:55:27.997Z,68.30
2017-11-08T04:56:29.305Z,68.50
2017-11-08T04:57:30.653Z,68.50
2017-11-08T04:58:31.972Z,68.50
2017-11-08T04:59:34.337Z,68.60
2017-11-08T05:00:36.414Z,68.60
2017-11-08T05:01:37.731Z,68.50
2017-11-08T05:02:39.788Z,68.40
2017-11-08T05:03:41.900Z,68.40
2017-11-08T05:04:43.485Z,68.40
2017-11-08T05:05:44.788Z,68.50
2017-11-08T05:06:46.096Z,68.50
2017-11-08T05:07:47.409Z,68.40
2017-11-08T05:08:48.722Z,68.20
2017-11-08T05:09:50.808Z,68.20
2017-11-08T05:10:52.115Z,68.10
2017-11-08T05:11:54.164Z,68.60
2017-11-08T05:12:55.491Z,68.00
2017-11-08T05:13:56.842Z,67.90
2017-11-08T05:15:05.528Z,67.90
2017-11-08T05:16:06.817Z,68.20
2017-11-08T05:17:08.137Z,68.00
2017-11-08T05:18:10.219Z,68.20
2017-11-08T05:19:11.544Z,68.10
2017-11-08T05:20:14.555Z,68.20
2017-11-08T05:21:15.899Z,68.20
2017-11-08T05:22:17.238Z,67.60
2017-11-08T05:23:18.559Z,67.60
2017-11-08T05:24:19.880Z,67.80
2017-11-08T05:25:21.250Z,67.90
2017-11-08T05:26:22.587Z,67.80
2017-11-08T05:27:23.885Z,67.80
2017-11-08T05:28:25.936Z,68.10
2017-11-08T05:29:27.979Z,68.20
2017-11-08T05:30:30.616Z,68.20
2017-11-08T05:31:31.937Z,68.30
2017-11-08T05:32:33.252Z,68.20
2017-11-08T05:33:34.582Z,68.80
2017-11-08T05:34:35.906Z,68.00
2017-11-08T05:35:38.233Z,67.50
2017-11-08T05:36:39.558Z,67.40
2017-11-08T05:37:40.895Z,67.50
2017-11-08T05:38:42.252Z,67.50
2017-11-08T05:39:43.633Z,67.60
2017-11-08T05:40:44.988Z,67.60
2017-11-08T05:41:46.341Z,67.80
2017-11-08T05:42:47.656Z,67.80
2017-11-08T05:43:48.972Z,67.80
2017-11-08T05:44:51.048Z,68.00
2017-11-08T05:45:52.399Z,67.80
2017-11-08T05:46:53.728Z,68.00
2017-11-08T05:47:55.141Z,68.00
2017-11-08T05:48:57.208Z,68.10
2017-11-08T05:49:59.312Z,68.10
2017-11-08T05:51:00.946Z,68.00
2017-11-08T05:52:02.293Z,68.10
2017-11-08T05:53:03.609Z,68.10
2017-11-08T05:54:04.973Z,68.10
2017-11-08T05:55:06.315Z,68.00
2017-11-08T05:56:07.656Z,67.90
2017-11-08T05:57:09.016Z,67.90
2017-11-08T05:58:10.324Z,68.10
2017-11-08T05:59:12.388Z,68.00
2017-11-08T06:00:13.708Z,68.00
2017-11-08T06:01:15.561Z,67.80
2017-11-08T06:02:16.896Z,67.80
2017-11-08T06:03:18.203Z,67.80
2017-11-08T06:04:20.299Z,67.70
2017-11-08T06:05:21.604Z,67.60
2017-11-08T06:06:23.283Z,67.30
2017-11-08T06:07:25.324Z,66.90
2017-11-08T06:08:26.629Z,66.80
2017-11-08T06:09:28.702Z,66.70
2017-11-08T06:10:30.021Z,66.70
2017-11-08T06:11:32.413Z,66.70
2017-11-08T06:12:33.728Z,66.60
2017-11-08T06:13:35.036Z,66.80
2017-11-08T06:14:36.352Z,66.90
2017-11-08T06:15:37.692Z,67.10
2017-11-08T06:16:39.796Z,67.50
2017-11-08T06:17:41.878Z,67.60
2017-11-08T06:18:43.209Z,67.60
2017-11-08T06:19:44.529Z,67.60
2017-11-08T06:20:46.580Z,67.60
2017-11-08T06:21:48.910Z,67.70
2017-11-08T06:22:50.235Z,67.60
2017-11-08T06:23:51.536Z,67.80
2017-11-08T06:24:52.823Z,67.50
2017-11-08T06:25:54.168Z,67.40
2017-11-08T06:26:55.570Z,67.30
2017-11-08T06:27:56.875Z,67.20
2017-11-08T06:28:58.935Z,67.40
2017-11-08T06:30:00.240Z,67.30
2017-11-08T06:31:01.572Z,67.60
2017-11-08T06:32:03.218Z,67.40
2017-11-08T06:33:04.512Z,67.90
2017-11-08T06:34:05.844Z,67.40
2017-11-08T06:35:07.164Z,67.50
2017-11-08T06:36:09.223Z,67.50
2017-11-08T06:37:11.569Z,66.80
2017-11-08T06:38:13.635Z,67.10
2017-11-08T06:39:15.731Z,67.20
2017-11-08T06:40:17.048Z,67.20
2017-11-08T06:41:18.388Z,67.10
2017-11-08T06:42:20.013Z,67.50
2017-11-08T06:43:22.090Z,67.60
2017-11-08T06:44:23.641Z,67.50
2017-11-08T06:45:25.161Z,67.30
2017-11-08T06:46:26.486Z,67.30
2017-11-08T06:47:28.591Z,67.50
2017-11-08T06:48:29.964Z,67.30
2017-11-08T06:49:31.289Z,67.50
2017-11-08T06:50:32.603Z,67.70
2017-11-08T06:51:34.725Z,67.70
2017-11-08T06:52:37.832Z,67.80
2017-11-08T06:53:42.112Z,67.70
2017-11-08T06:54:43.434Z,67.80
2017-11-08T06:55:51.663Z,68.10
2017-11-08T06:56:52.988Z,68.10
2017-11-08T06:57:54.349Z,67.70
2017-11-08T06:58:55.668Z,67.70
2017-11-08T06:59:56.996Z,67.80
2017-11-08T07:00:59.085Z,68.20
2017-11-08T07:02:00.400Z,68.10
2017-11-08T07:03:01.992Z,68.00
2017-11-08T07:04:03.337Z,67.90
2017-11-08T07:05:05.501Z,67.10
2017-11-08T07:06:06.851Z,67.10
2017-11-08T07:07:08.181Z,67.30
2017-11-08T07:08:12.742Z,67.30
2017-11-08T07:09:14.076Z,67.30
2017-11-08T07:10:15.408Z,67.30
2017-11-08T07:11:16.737Z,67.80
2017-11-08T07:12:18.790Z,67.20
2017-11-08T07:13:21.399Z,67.20
2017-11-08T07:14:22.751Z,67.10
2017-11-08T07:15:24.104Z,67.00
2017-11-08T07:16:25.405Z,67.20
2017-11-08T07:17:30.631Z,67.70
2017-11-08T07:18:31.991Z,67.20
2017-11-08T07:19:33.309Z,67.50
2017-11-08T07:20:34.649Z,67.60
2017-11-08T07:21:35.975Z,67.70
2017-11-08T07:22:37.299Z,67.80
2017-11-08T07:23:39.640Z,67.30
2017-11-08T07:24:40.980Z,67.10
2017-11-08T07:25:43.061Z,67.00
2017-11-08T07:26:44.363Z,67.00
2017-11-08T07:27:45.698Z,67.00
2017-11-08T07:28:47.329Z,67.00
2017-11-08T07:29:48.667Z,67.20
2017-11-08T07:30:49.959Z,67.30
2017-11-08T07:31:51.303Z,67.50
2017-11-08T07:32:52.604Z,67.40
2017-11-08T07:33:53.956Z,67.30
2017-11-08T07:34:56.013Z,67.70
2017-11-08T07:35:58.064Z,67.70
2017-11-08T07:37:00.093Z,67.80
2017-11-08T07:38:01.445Z,67.70
2017-11-08T07:39:02.823Z,67.90
2017-11-08T07:40:04.175Z,68.60
2017-11-08T07:41:05.514Z,68.00
2017-11-08T07:42:06.841Z,68.10
2017-11-08T07:43:08.183Z,67.90
2017-11-08T07:44:09.815Z,67.70
2017-11-08T07:45:11.137Z,67.20
2017-11-08T07:46:13.200Z,67.30
2017-11-08T07:47:15.233Z,67.20
2017-11-08T07:48:16.585Z,67.20
2017-11-08T07:49:18.747Z,67.60
2017-11-08T07:50:20.076Z,67.50
2017-11-08T07:51:22.153Z,68.00
2017-11-08T07:52:23.506Z,68.00
2017-11-08T07:53:25.673Z,68.10
2017-11-08T07:54:27.268Z,68.10
2017-11-08T07:55:37.148Z,68.30
2017-11-08T07:56:38.483Z,68.30
2017-11-08T07:57:40.576Z,69.00
2017-11-08T07:58:41.946Z,68.40
2017-11-08T07:59:49.264Z,68.80
2017-11-08T08:00:50.620Z,68.70
2017-11-08T08:01:51.962Z,68.60
2017-11-08T08:02:53.285Z,68.50
2017-11-08T08:03:54.636Z,68.50
2017-11-08T08:04:55.988Z,68.40
2017-11-08T08:05:57.316Z,68.60
2017-11-08T08:06:58.648Z,68.50
2017-11-08T08:07:59.962Z,68.30
2017-11-08T08:09:01.300Z,68.30
2017-11-08T08:10:02.673Z,68.00
2017-11-08T08:11:14.732Z,67.90
2017-11-08T08:12:16.028Z,67.90
2017-11-08T08:13:18.080Z,67.80
2017-11-08T08:14:20.164Z,67.80
2017-11-08T08:15:21.537Z,67.80
2017-11-08T08:16:22.867Z,67.80
2017-11-08T08:17:24.184Z,67.80
2017-11-08T08:18:25.493Z,67.80
2017-11-08T08:19:27.552Z,67.90
2017-11-08T08:20:29.676Z,67.90
2017-11-08T08:21:31.023Z,67.90
2017-11-08T08:22:32.337Z,68.00
2017-11-08T08:23:33.653Z,68.00
2017-11-08T08:24:34.966Z,68.00
2017-11-08T08:25:37.048Z,68.00
2017-11-08T08:26:44.542Z,68.00
2017-11-08T08:27:49.691Z,68.70
2017-11-08T08:28:51.020Z,68.10
2017-11-08T08:29:52.374Z,68.10
2017-11-08T08:30:53.999Z,68.10
2017-11-08T08:31:55.285Z,68.10
2017-11-08T08:32:57.342Z,68.20
2017-11-08T08:33:59.383Z,68.20
2017-11-08T08:35:00.748Z,68.20
2017-11-08T08:36:03.143Z,68.30
2017-11-08T08:37:04.501Z,68.20
2017-11-08T08:38:05.827Z,68.30
2017-11-08T08:39:07.144Z,68.30
2017-11-08T08:40:08.469Z,68.30
2017-11-08T08:41:09.826Z,68.30
2017-11-08T08:42:11.146Z,68.30
2017-11-08T08:43:12.467Z,68.90
2017-11-08T08:44:14.516Z,68.20
2017-11-08T08:45:16.569Z,68.20
2017-11-08T08:46:18.276Z,68.20
2017-11-08T08:47:19.576Z,68.70
2017-11-08T08:48:20.892Z,68.90
2017-11-08T08:49:22.969Z,69.20
2017-11-08T08:50:24.289Z,69.10
2017-11-08T08:51:26.648Z,68.80
2017-11-08T08:52:28.716Z,68.70
2017-11-08T08:53:30.775Z,68.80
2017-11-08T08:54:32.176Z,68.80
2017-11-08T08:55:33.488Z,68.70
2017-11-08T08:56:34.844Z,68.60
2017-11-08T08:57:36.149Z,68.60
2017-11-08T08:58:37.437Z,68.40
2017-11-08T08:59:38.780Z,68.50
2017-11-08T09:00:40.085Z,68.80
2017-11-08T09:01:41.416Z,68.90
2017-11-08T09:02:48.577Z,69.20
2017-11-08T09:03:49.881Z,69.30
2017-11-08T09:04:51.937Z,68.40
2017-11-08T09:05:53.985Z,68.40
2017-11-08T09:06:57.213Z,69.00
2017-11-08T09:07:58.526Z,68.40
2017-11-08T09:08:59.846Z,68.40
2017-11-08T09:10:01.950Z,68.50
2017-11-08T09:11:03.454Z,68.40
2017-11-08T09:12:05.852Z,68.50
2017-11-08T09:13:08.353Z,68.50
2017-11-08T09:14:09.664Z,68.50
2017-11-08T09:15:11.006Z,68.50
2017-11-08T09:16:13.817Z,68.50
2017-11-08T09:17:15.402Z,68.10
2017-11-08T09:18:16.733Z,67.60
2017-11-08T09:19:18.071Z,67.80
2017-11-08T09:20:29.388Z,68.10
2017-11-08T09:21:30.736Z,68.50
2017-11-08T09:22:32.836Z,68.10
2017-11-08T09:23:34.173Z,68.00
2017-11-08T09:24:35.504Z,67.90
2017-11-08T09:25:36.853Z,67.50
2017-11-08T09:26:38.171Z,67.20
2017-11-08T09:27:40.299Z,67.10
2017-11-08T09:28:42.635Z,67.00
2017-11-08T09:29:45.911Z,67.00
2017-11-08T09:30:47.259Z,67.40
2017-11-08T09:31:48.593Z,66.90
2017-11-08T09:32:50.231Z,66.50
2017-11-08T09:33:51.609Z,66.80
2017-11-08T09:34:55.825Z,66.70
2017-11-08T09:35:57.911Z,67.30
2017-11-08T09:36:59.244Z,67.20
2017-11-08T09:38:08.116Z,67.40
2017-11-08T09:39:12.388Z,67.40
2017-11-08T09:40:14.717Z,67.20
2017-11-08T09:41:16.820Z,66.80
2017-11-08T09:42:20.016Z,66.70
2017-11-08T09:43:21.437Z,66.90
2017-11-08T09:44:22.777Z,66.60
2017-11-08T09:45:24.135Z,66.10
2017-11-08T09:46:25.503Z,66.10
2017-11-08T09:47:27.589Z,65.50
2017-11-08T09:48:32.125Z,65.40
2017-11-08T09:49:34.129Z,65.60
2017-11-08T09:50:36.188Z,65.50
2017-11-08T09:51:38.232Z,65.20
2017-11-08T09:52:41.593Z,65.10
2017-11-08T09:53:42.932Z,65.30
2017-11-08T09:54:44.283Z,65.30
2017-11-08T09:55:51.666Z,65.30
2017-11-08T09:56:52.965Z,64.60
2017-11-08T09:57:54.272Z,64.90
2017-11-08T09:58:56.020Z,64.60
2017-11-08T09:59:57.376Z,64.80
2017-11-08T10:01:01.549Z,64.10
2017-11-08T10:02:05.599Z,64.90
2017-11-08T10:03:06.916Z,64.20
2017-11-08T10:04:08.325Z,64.00
2017-11-08T10:05:10.409Z,64.60
2017-11-08T10:06:11.759Z,64.60
2017-11-08T10:07:13.056Z,64.20
2017-11-08T10:08:15.176Z,63.70
2017-11-08T10:09:22.796Z,63.70
2017-11-08T10:10:28.925Z,63.60
2017-11-08T10:11:33.203Z,63.40
2017-11-08T10:12:34.542Z,63.70
2017-11-08T10:13:35.860Z,63.90
2017-11-08T10:14:40.750Z,64.00
2017-11-08T10:15:49.105Z,63.80
2017-11-08T10:16:53.469Z,63.70
2017-11-08T10:17:57.524Z,64.10
2017-11-08T10:18:58.835Z,64.00
2017-11-08T10:20:00.487Z,63.50
2017-11-08T10:21:01.799Z,63.50
2017-11-08T10:22:03.876Z,63.70
2017-11-08T10:23:05.205Z,63.60
2017-11-08T10:24:06.530Z,63.10
2017-11-08T10:25:08.952Z,62.90
2017-11-08T10:26:10.240Z,62.80
2017-11-08T10:27:11.578Z,63.00
2017-11-08T10:28:12.871Z,63.90
2017-11-08T10:29:14.181Z,63.20
2017-11-08T10:30:15.787Z,64.00
2017-11-08T10:31:17.836Z,63.40
2017-11-08T10:32:19.152Z,63.30
2017-11-08T10:33:20.473Z,62.90
2017-11-08T10:34:21.818Z,62.60
2017-11-08T10:35:24.178Z,62.50
2017-11-08T10:36:25.509Z,62.40
2017-11-08T10:37:26.838Z,62.80
2017-11-08T10:38:28.203Z,63.00
2017-11-08T10:39:29.528Z,63.20
2017-11-08T10:40:31.179Z,63.50
2017-11-08T10:41:32.521Z,63.20
2017-11-08T10:42:33.869Z,63.60
2017-11-08T10:43:35.199Z,63.40
2017-11-08T10:44:37.269Z,62.20
2017-11-08T10:45:38.934Z,62.20
2017-11-08T10:46:40.273Z,62.20
2017-11-08T10:47:41.602Z,62.60
2017-11-08T10:48:42.912Z,62.90
2017-11-08T10:49:49.900Z,63.20
2017-11-08T10:50:51.261Z,63.10
2017-11-08T10:51:52.610Z,63.50
2017-11-08T10:52:53.958Z,63.50
2017-11-08T10:53:55.293Z,63.30
2017-11-08T10:54:57.433Z,63.40
2017-11-08T10:55:59.039Z,64.20
2017-11-08T10:57:01.117Z,63.10
2017-11-08T10:58:02.461Z,63.00
2017-11-08T10:59:03.845Z,63.30
2017-11-08T11:00:08.076Z,62.80
2017-11-08T11:01:10.476Z,62.60
2017-11-08T11:02:11.818Z,62.50
2017-11-08T11:03:13.171Z,62.80
2017-11-08T11:04:14.502Z,62.30
2017-11-08T11:05:15.892Z,62.10
2017-11-08T11:06:18.259Z,62.40
2017-11-08T11:07:20.346Z,62.80
2017-11-08T11:08:21.678Z,62.80
2017-11-08T11:09:23.048Z,63.30
2017-11-08T11:10:24.429Z,63.20
2017-11-08T11:11:26.567Z,62.80
2017-11-08T11:12:27.929Z,62.80
2017-11-08T11:13:30.008Z,63.00
2017-11-08T11:14:32.101Z,62.90
2017-11-08T11:15:33.457Z,62.80
2017-11-08T11:16:34.843Z,62.90
2017-11-08T11:17:36.175Z,63.30
2017-11-08T11:18:37.533Z,63.50
2017-11-08T11:19:38.875Z,62.90
2017-11-08T11:20:40.234Z,62.50
2017-11-08T11:21:48.285Z,62.80
2017-11-08T11:22:49.634Z,62.20
2017-11-08T11:23:50.996Z,63.10
2017-11-08T11:24:55.130Z,63.50
2017-11-08T11:25:56.485Z,63.60
2017-11-08T11:27:04.955Z,63.70
2017-11-08T11:28:06.336Z,63.60
2017-11-08T11:29:08.414Z,63.30
2017-11-08T11:30:09.806Z,63.20
2017-11-08T11:31:11.163Z,63.50
2017-11-08T11:32:16.051Z,63.10
2017-11-08T11:33:19.289Z,63.00
2017-11-08T11:34:20.634Z,63.10
2017-11-08T11:35:21.998Z,63.30
2017-11-08T11:36:23.357Z,62.80
2017-11-08T11:37:24.762Z,62.70
2017-11-08T11:38:28.023Z,62.40
2017-11-08T11:39:29.381Z,62.70
2017-11-08T11:40:30.737Z,63.10
2017-11-08T11:41:32.082Z,63.10
2017-11-08T11:42:33.737Z,63.30
2017-11-08T11:43:35.118Z,62.50
2017-11-08T11:44:37.337Z,62.70
2017-11-08T11:45:38.681Z,62.70
2017-11-08T11:46:40.021Z,62.40
2017-11-08T11:47:41.390Z,62.20
2017-11-08T11:49:04.238Z,61.70
2017-11-08T11:50:06.428Z,62.30
2017-11-08T11:51:07.765Z,62.20
2017-11-08T11:53:07.962Z,62.10
2017-11-08T11:54:10.047Z,62.40
2017-11-08T11:55:11.380Z,62.30
2017-11-08T11:56:12.708Z,62.30
2017-11-08T11:57:14.075Z,62.30
2017-11-08T11:58:15.756Z,62.30
2017-11-08T11:59:20.629Z,61.90
2017-11-08T12:00:21.960Z,61.90
2017-11-08T12:01:23.337Z,62.00
2017-11-08T12:02:24.725Z,62.10
2017-11-08T12:03:26.360Z,61.50
2017-11-08T12:04:28.433Z,61.20
2017-11-08T12:05:29.829Z,61.20
2017-11-08T12:06:31.177Z,61.50
2017-11-08T12:08:40.765Z,61.10
2017-11-08T12:09:42.122Z,61.30
2017-11-08T12:10:43.469Z,61.70
2017-11-08T12:11:44.830Z,61.80
2017-11-08T12:12:46.171Z,61.60
2017-11-08T12:13:50.949Z,60.50
2017-11-08T12:14:52.309Z,60.60
2017-11-08T12:15:53.682Z,60.60
2017-11-08T12:16:57.682Z,60.70
2017-11-08T12:17:59.784Z,60.90
2017-11-08T12:19:01.166Z,60.80
2017-11-08T12:20:02.511Z,61.00
2017-11-08T12:21:05.302Z,61.10
2017-11-08T12:22:06.658Z,60.90
2017-11-08T12:23:08.021Z,61.20
2017-11-08T12:24:09.761Z,61.40
2017-11-08T12:25:11.096Z,61.20
2017-11-08T12:26:12.462Z,60.70
2017-11-08T12:27:13.825Z,60.40
2017-11-08T12:28:17.788Z,60.40
2017-11-08T12:29:19.394Z,60.30
2017-11-08T12:30:20.745Z,60.40
2017-11-08T12:31:22.110Z,60.10
2017-11-08T12:32:23.478Z,60.40
2017-11-08T12:33:25.581Z,61.40
2017-11-08T12:34:26.953Z,61.30
2017-11-08T12:35:28.305Z,61.60
2017-11-08T12:36:29.645Z,62.00
2017-11-08T12:37:30.982Z,62.10
2017-11-08T12:38:32.330Z,62.00
2017-11-08T12:39:33.735Z,62.60
2017-11-08T12:40:35.108Z,63.20
2017-11-08T12:41:36.477Z,62.50
2017-11-08T12:42:37.824Z,62.20
2017-11-08T12:43:39.953Z,62.00
2017-11-08T12:44:48.244Z,62.20
2017-11-08T12:45:49.630Z,62.10
2017-11-08T12:46:50.972Z,62.30
2017-11-08T12:47:52.320Z,62.00
2017-11-08T12:48:53.693Z,62.30
2017-11-08T12:49:55.078Z,62.40
2017-11-08T12:50:56.430Z,62.70
2017-11-08T12:51:57.777Z,63.00
2017-11-08T12:52:59.123Z,63.30
2017-11-08T12:54:00.499Z,62.60
2017-11-08T12:55:02.918Z,62.60
2017-11-08T12:56:05.105Z,62.70
2017-11-08T12:57:07.203Z,62.50
2017-11-08T12:58:08.536Z,62.50
2017-11-08T12:59:09.907Z,62.50
2017-11-08T13:00:11.291Z,62.40
2017-11-08T13:01:13.374Z,62.30
2017-11-08T13:02:14.719Z,62.80
2017-11-08T13:03:16.053Z,62.00
2017-11-08T13:04:17.393Z,62.20
2017-11-08T13:05:19.065Z,62.30
2017-11-08T13:06:20.425Z,62.40
2017-11-08T13:07:21.774Z,62.60
2017-11-08T13:08:23.112Z,62.70
2017-11-08T13:09:24.464Z,62.80
2017-11-08T13:10:26.469Z,62.40
2017-11-08T13:11:33.829Z,62.10
2017-11-08T13:12:35.161Z,61.60
2017-11-08T13:13:36.695Z,62.00
2017-11-08T13:14:38.058Z,62.20
2017-11-08T13:15:39.446Z,62.30
2017-11-08T13:16:40.786Z,62.10
2017-11-08T13:17:42.182Z,62.30
2017-11-08T13:18:43.509Z,62.40
2017-11-08T13:19:44.861Z,62.20